createdAt,value
2018-03-29T00:02:10.364Z,64.70
2018-03-29T00:04:37.957Z,64.60
2018-03-29T00:07:05.554Z,64.70
2018-03-29T00:09:33.952Z,65.10
2018-03-29T00:12:01.544Z,65.00
2018-03-29T00:14:29.160Z,65.50
2018-03-29T00:16:57.625Z,65.10
2018-03-29T00:19:25.210Z,65.00
2018-03-29T00:21:52.832Z,65.10
2018-03-29T00:24:21.924Z,65.00
2018-03-29T00:26:50.304Z,64.80
2018-03-29T00:29:17.917Z,64.80
2018-03-29T00:31:45.512Z,64.70
2018-03-29T00:34:13.142Z,64.80
2018-03-29T00:36:40.741Z,64.70
2018-03-29T00:39:08.792Z,64.70
2018-03-29T00:41:36.448Z,64.70
2018-03-29T00:44:04.044Z,65.30
2018-03-29T00:46:32.805Z,65.50
2018-03-29T00:49:00.416Z,64.60
2018-03-29T00:51:28.763Z,64.70
2018-03-29T00:53:56.398Z,64.70
2018-03-29T00:56:23.981Z,64.70
2018-03-29T00:58:51.600Z,64.40
2018-03-29T01:01:19.189Z,64.60
2018-03-29T01:03:46.768Z,64.80
2018-03-29T01:06:14.404Z,64.60
2018-03-29T01:08:41.990Z,64.50
2018-03-29T01:11:09.611Z,64.40
2018-03-29T01:13:37.200Z,64.20
2018-03-29T01:16:04.824Z,64.60
2018-03-29T01:18:32.408Z,64.60
2018-03-29T01:20:59.991Z,64.70
2018-03-29T01:23:27.610Z,64.60
2018-03-29T01:25:55.192Z,64.70
2018-03-29T01:28:22.807Z,64.50
2018-03-29T01:30:51.156Z,64.60
2018-03-29T01:33:18.745Z,64.50
2018-03-29T01:35:46.359Z,64.40
2018-03-29T01:38:13.953Z,64.50
2018-03-29T01:40:42.328Z,64.40
2018-03-29T01:43:09.924Z,64.40
2018-03-29T01:45:37.548Z,64.20
2018-03-29T01:48:05.136Z,64.10
2018-03-29T01:50:32.717Z,65.10
2018-03-29T01:53:00.327Z,64.40
2018-03-29T01:55:27.911Z,64.40
2018-03-29T01:57:55.536Z,64.30
2018-03-29T02:00:23.120Z,64.20
2018-03-29T02:02:51.488Z,64.20
2018-03-29T02:05:19.876Z,63.30
2018-03-29T02:07:48.265Z,63.70
2018-03-29T02:10:16.603Z,64.20
2018-03-29T02:12:44.217Z,64.10
2018-03-29T02:15:11.810Z,64.20
2018-03-29T02:17:39.421Z,63.90
2018-03-29T02:20:07.772Z,64.00
2018-03-29T02:22:35.392Z,63.90
2018-03-29T02:25:02.978Z,63.90
2018-03-29T02:27:30.568Z,63.90
2018-03-29T02:29:58.180Z,63.90
2018-03-29T02:32:25.771Z,64.60
2018-03-29T02:34:54.899Z,63.60
2018-03-29T02:37:23.249Z,63.60
2018-03-29T02:39:51.609Z,63.50
2018-03-29T02:42:19.229Z,63.40
2018-03-29T02:44:46.820Z,63.60
2018-03-29T02:47:14.408Z,63.70
2018-03-29T02:49:42.026Z,63.60
2018-03-29T02:52:09.608Z,63.50
2018-03-29T02:54:37.204Z,63.40
2018-03-29T02:57:05.587Z,63.30
2018-03-29T02:59:33.977Z,63.50
2018-03-29T03:02:02.333Z,63.50
2018-03-29T03:04:29.916Z,63.40
2018-03-29T03:06:58.305Z,63.60
2018-03-29T03:09:25.889Z,63.50
2018-03-29T03:11:53.502Z,63.40
2018-03-29T03:14:21.864Z,63.30
2018-03-29T03:16:50.988Z,63.50
2018-03-29T03:19:19.339Z,63.30
2018-03-29T03:21:46.963Z,63.30
2018-03-29T03:24:14.540Z,63.50
2018-03-29T03:26:42.124Z,63.30
2018-03-29T03:29:09.734Z,63.30
2018-03-29T03:31:37.327Z,63.50
2018-03-29T03:34:04.949Z,63.20
2018-03-29T03:36:32.536Z,63.40
2018-03-29T03:39:00.124Z,63.40
2018-03-29T03:41:27.744Z,63.50
2018-03-29T03:43:55.332Z,63.40
2018-03-29T03:46:23.716Z,64.60
2018-03-29T03:48:52.080Z,64.10
2018-03-29T03:51:19.704Z,63.50
2018-03-29T03:53:47.288Z,63.60
2018-03-29T03:56:14.915Z,63.30
2018-03-29T03:58:43.272Z,63.20
2018-03-29T04:01:10.857Z,63.20
2018-03-29T04:03:38.472Z,63.90
2018-03-29T04:06:06.057Z,63.30
2018-03-29T04:08:33.672Z,63.60
2018-03-29T04:11:01.260Z,63.40
2018-03-29T04:13:28.853Z,63.50
2018-03-29T04:15:57.236Z,63.50
2018-03-29T04:18:25.592Z,63.60
2018-03-29T04:20:53.212Z,63.50
2018-03-29T04:23:20.800Z,63.80
2018-03-29T04:25:48.379Z,63.60
2018-03-29T04:28:16.759Z,63.30
2018-03-29T04:30:45.112Z,63.60
2018-03-29T04:33:12.728Z,63.50
2018-03-29T04:35:40.312Z,63.80
2018-03-29T04:38:07.939Z,63.70
2018-03-29T04:40:35.529Z,63.60
2018-03-29T04:43:03.112Z,63.60
2018-03-29T04:45:32.230Z,63.80
2018-03-29T04:47:59.824Z,63.60
2018-03-29T04:50:27.436Z,64.80
2018-03-29T04:52:55.024Z,63.70
2018-03-29T04:55:23.410Z,63.80
2018-03-29T04:57:51.755Z,63.90
2018-03-29T05:00:20.261Z,63.80
2018-03-29T05:02:48.638Z,64.20
2018-03-29T05:05:16.992Z,64.00
2018-03-29T05:07:44.612Z,63.90
2018-03-29T05:10:12.197Z,64.40
2018-03-29T05:12:39.780Z,64.40
2018-03-29T05:15:07.392Z,64.20
2018-03-29T05:17:34.979Z,64.30
2018-03-29T05:20:02.607Z,64.00
2018-03-29T05:22:30.189Z,63.90
2018-03-29T05:24:57.808Z,64.10
2018-03-29T05:27:26.158Z,64.40
2018-03-29T05:29:53.763Z,64.30
2018-03-29T05:32:21.345Z,64.50
2018-03-29T05:34:48.959Z,64.20
2018-03-29T05:37:17.335Z,64.20
2018-03-29T05:39:45.717Z,64.40
2018-03-29T05:42:14.099Z,64.40
2018-03-29T05:44:42.522Z,64.40
2018-03-29T05:47:10.132Z,64.30
2018-03-29T05:49:38.511Z,64.50
2018-03-29T05:52:06.901Z,64.60
2018-03-29T05:54:34.501Z,64.60
2018-03-29T05:57:02.126Z,64.60
2018-03-29T05:59:30.480Z,64.70
2018-03-29T06:01:58.069Z,64.70
2018-03-29T06:04:25.685Z,64.60
2018-03-29T06:06:53.280Z,64.80
2018-03-29T06:09:21.672Z,65.00
2018-03-29T06:11:49.252Z,64.80
2018-03-29T06:14:16.832Z,65.00
2018-03-29T06:16:47.305Z,64.80
2018-03-29T06:19:14.900Z,64.80
2018-03-29T06:21:42.513Z,65.00
2018-03-29T06:24:10.092Z,65.00
2018-03-29T06:26:37.700Z,65.30
2018-03-29T06:29:05.298Z,65.10
2018-03-29T06:31:33.695Z,65.10
2018-03-29T06:34:01.289Z,65.10
2018-03-29T06:36:28.879Z,65.10
2018-03-29T06:38:56.484Z,65.30
2018-03-29T06:41:24.068Z,65.30
2018-03-29T06:43:52.061Z,65.20
2018-03-29T06:46:19.707Z,65.20
2018-03-29T06:48:47.327Z,65.30
2018-03-29T06:51:15.696Z,65.40
2018-03-29T06:56:18.076Z,65.40
2018-03-29T06:58:45.701Z,65.70
2018-03-29T07:01:13.280Z,66.50
2018-03-29T07:03:41.636Z,65.50
2018-03-29T07:06:09.262Z,65.50
2018-03-29T07:08:36.849Z,65.90
2018-03-29T07:11:04.464Z,65.80
2018-03-29T07:13:32.820Z,65.50
2018-03-29T07:16:00.443Z,65.40
2018-03-29T07:18:28.036Z,65.80
2018-03-29T07:20:55.657Z,65.90
2018-03-29T07:23:23.252Z,65.80
2018-03-29T07:25:50.872Z,65.60
2018-03-29T07:28:18.456Z,65.90
2018-03-29T07:30:46.049Z,66.10
2018-03-29T07:33:13.672Z,65.90
2018-03-29T07:35:41.981Z,65.70
2018-03-29T07:38:09.595Z,65.90
2018-03-29T07:40:37.197Z,65.90
2018-03-29T07:43:04.817Z,65.70
2018-03-29T07:45:32.413Z,65.80
2018-03-29T07:48:00.021Z,66.00
2018-03-29T07:50:28.405Z,65.90
2018-03-29T07:52:55.997Z,65.80
2018-03-29T07:55:23.627Z,66.00
2018-03-29T07:57:51.346Z,66.10
2018-03-29T08:00:18.964Z,66.30
2018-03-29T08:02:46.551Z,66.40
2018-03-29T08:05:14.170Z,66.30
2018-03-29T08:07:41.756Z,66.30
2018-03-29T08:10:09.363Z,66.30
2018-03-29T08:12:36.952Z,66.40
2018-03-29T08:15:04.590Z,66.40
2018-03-29T08:17:32.963Z,66.60
2018-03-29T08:20:00.554Z,66.50
2018-03-29T08:22:28.168Z,66.60
2018-03-29T08:24:55.772Z,66.40
2018-03-29T08:27:23.452Z,66.60
2018-03-29T08:29:51.778Z,66.60
2018-03-29T08:32:20.160Z,66.50
2018-03-29T08:34:47.744Z,66.50
2018-03-29T08:37:16.178Z,66.50
2018-03-29T08:39:43.775Z,66.40
2018-03-29T08:42:11.397Z,66.70
2018-03-29T08:44:38.987Z,66.40
2018-03-29T08:47:07.339Z,66.40
2018-03-29T08:49:34.949Z,66.40
2018-03-29T08:52:02.541Z,66.40
2018-03-29T08:54:30.352Z,66.60
2018-03-29T08:56:58.700Z,67.00
2018-03-29T08:59:26.288Z,66.80
2018-03-29T09:01:53.901Z,66.90
2018-03-29T09:04:21.491Z,67.10
2018-03-29T09:06:50.617Z,66.70
2018-03-29T09:09:18.980Z,66.70
2018-03-29T09:11:46.587Z,66.70
2018-03-29T09:14:14.470Z,66.90
2018-03-29T09:16:42.464Z,66.90
2018-03-29T09:19:10.841Z,66.80
2018-03-29T09:21:38.436Z,66.80
2018-03-29T09:24:06.810Z,67.00
2018-03-29T09:26:35.166Z,66.80
2018-03-29T09:29:02.923Z,66.80
2018-03-29T09:31:30.516Z,66.70
2018-03-29T09:33:58.866Z,66.50
2018-03-29T09:36:26.476Z,66.40
2018-03-29T09:38:54.587Z,66.70
2018-03-29T09:41:23.963Z,66.90
2018-03-29T09:43:55.449Z,66.80
2018-03-29T09:46:24.226Z,67.30
2018-03-29T09:48:51.816Z,67.20
2018-03-29T09:51:20.253Z,67.00
2018-03-29T09:53:47.861Z,66.90
2018-03-29T09:56:16.215Z,66.90
2018-03-29T09:58:44.059Z,66.90
2018-03-29T10:01:11.649Z,67.00
2018-03-29T10:03:39.237Z,66.90
2018-03-29T10:06:13.394Z,66.90
2018-03-29T10:08:41.009Z,66.90
2018-03-29T10:11:09.359Z,67.30
2018-03-29T10:13:36.943Z,67.10
2018-03-29T10:16:05.328Z,67.50
2018-03-29T10:18:32.913Z,67.30
2018-03-29T10:21:00.529Z,67.60
2018-03-29T10:23:28.120Z,67.40
2018-03-29T10:25:56.504Z,67.50
2018-03-29T10:28:24.108Z,67.50
2018-03-29T10:30:51.724Z,67.50
2018-03-29T10:33:19.321Z,67.50
2018-03-29T10:35:46.945Z,67.40
2018-03-29T10:38:14.536Z,67.70
2018-03-29T10:40:42.119Z,67.90
2018-03-29T10:43:09.728Z,67.90
2018-03-29T10:45:37.317Z,68.60
2018-03-29T10:48:04.942Z,68.50
2018-03-29T10:50:32.557Z,68.20
2018-03-29T10:53:00.141Z,68.20
2018-03-29T10:55:28.531Z,68.00
2018-03-29T10:57:56.889Z,68.30
2018-03-29T11:00:24.520Z,68.20
2018-03-29T11:02:52.111Z,68.00
2018-03-29T11:05:20.464Z,68.20
2018-03-29T11:07:48.084Z,68.10
2018-03-29T11:10:15.682Z,68.40
2018-03-29T11:12:43.293Z,68.50
2018-03-29T11:15:11.654Z,68.50
2018-03-29T11:17:39.283Z,68.40
2018-03-29T11:20:06.938Z,68.60
2018-03-29T11:22:34.538Z,68.60
2018-03-29T11:25:02.307Z,68.80
2018-03-29T11:27:29.888Z,68.70
2018-03-29T11:29:57.503Z,69.80
2018-03-29T11:32:25.088Z,69.40
2018-03-29T11:34:53.444Z,69.70
2018-03-29T11:37:21.065Z,69.50
2018-03-29T11:39:48.656Z,69.70
2018-03-29T11:42:16.285Z,69.60
2018-03-29T11:44:43.868Z,70.00
2018-03-29T11:47:11.452Z,69.70
2018-03-29T11:49:39.372Z,70.40
2018-03-29T11:52:06.964Z,70.80
2018-03-29T11:54:34.576Z,70.70
2018-03-29T11:57:02.187Z,70.80
2018-03-29T11:59:29.804Z,70.80
2018-03-29T12:01:57.400Z,71.00
2018-03-29T12:04:25.112Z,71.20
2018-03-29T12:06:53.469Z,71.00
2018-03-29T12:09:21.054Z,71.00
2018-03-29T12:11:49.428Z,70.70
2018-03-29T12:14:17.784Z,71.90
2018-03-29T12:16:45.412Z,71.80
2018-03-29T12:19:13.080Z,71.00
2018-03-29T12:21:40.672Z,70.80
2018-03-29T12:24:08.280Z,71.70
2018-03-29T12:26:35.861Z,70.80
2018-03-29T12:29:03.476Z,71.70
2018-03-29T12:31:31.065Z,71.20
2018-03-29T12:33:58.662Z,70.50
2018-03-29T12:36:26.285Z,70.70
2018-03-29T12:38:53.886Z,70.20
2018-03-29T12:41:21.499Z,70.20
2018-03-29T12:43:49.096Z,69.90
2018-03-29T12:46:16.678Z,69.80
2018-03-29T12:48:44.295Z,70.10
2018-03-29T12:51:11.879Z,69.10
2018-03-29T12:53:39.500Z,69.40
2018-03-29T12:56:21.973Z,69.40
2018-03-29T12:58:50.365Z,69.80
2018-03-29T13:01:18.725Z,69.10
2018-03-29T13:03:46.312Z,69.00
2018-03-29T13:06:13.928Z,69.90
2018-03-29T13:08:41.576Z,68.80
2018-03-29T13:11:09.169Z,68.30
2018-03-29T13:13:36.752Z,68.00
2018-03-29T13:16:04.368Z,68.20
2018-03-29T13:18:31.961Z,66.80
2018-03-29T13:21:00.359Z,66.10
2018-03-29T13:23:27.949Z,65.90
2018-03-29T13:28:27.352Z,64.90
2018-03-29T13:30:55.000Z,65.50
2018-03-29T13:33:22.594Z,65.10
2018-03-29T13:35:50.240Z,65.60
2018-03-29T13:38:17.837Z,65.40
2018-03-29T13:40:45.451Z,65.50
2018-03-29T13:43:13.039Z,65.60
2018-03-29T13:45:40.655Z,65.90
2018-03-29T13:48:09.013Z,65.40
2018-03-29T13:50:36.636Z,65.30
2018-03-29T13:53:04.225Z,65.70
2018-03-29T13:55:31.816Z,64.90
2018-03-29T13:57:59.431Z,64.60
2018-03-29T14:00:27.023Z,64.30
2018-03-29T14:02:55.412Z,64.40
2018-03-29T14:05:23.768Z,64.30
2018-03-29T14:07:52.158Z,64.00
2018-03-29T14:10:20.504Z,64.40
2018-03-29T14:12:48.107Z,64.20
2018-03-29T14:15:16.494Z,63.40
2018-03-29T14:17:44.104Z,63.30
2018-03-29T14:20:11.725Z,63.20
2018-03-29T14:22:39.410Z,62.90
2018-03-29T14:25:07.032Z,62.10
2018-03-29T14:27:35.392Z,62.70
2018-03-29T14:30:03.864Z,63.60
2018-03-29T14:32:31.417Z,62.60
2018-03-29T14:34:59.006Z,61.40
2018-03-29T14:37:26.647Z,61.90
2018-03-29T14:39:55.056Z,61.60
2018-03-29T14:42:22.692Z,61.60
2018-03-29T14:44:51.068Z,60.80
2018-03-29T14:47:18.649Z,60.80
2018-03-29T14:49:47.035Z,60.30
2018-03-29T14:52:14.620Z,60.20
2018-03-29T14:54:42.248Z,60.60
2018-03-29T14:57:10.612Z,60.50
2018-03-29T14:59:38.209Z,60.40
2018-03-29T15:02:05.828Z,60.30
2018-03-29T15:04:33.427Z,60.50
2018-03-29T15:07:01.045Z,60.70
2018-03-29T15:09:28.631Z,60.80
2018-03-29T15:11:57.026Z,60.50
2018-03-29T15:14:24.629Z,60.50
2018-03-29T15:16:52.216Z,60.00
2018-03-29T15:19:20.604Z,58.90
2018-03-29T15:21:48.987Z,59.50
2018-03-29T15:24:17.378Z,59.70
2018-03-29T15:26:47.174Z,59.60
2018-03-29T15:29:14.911Z,59.40
2018-03-29T15:31:42.648Z,59.90
2018-03-29T15:34:10.314Z,60.20
2018-03-29T15:36:37.984Z,59.70
2018-03-29T15:39:05.851Z,60.00
2018-03-29T15:41:33.724Z,60.40
2018-03-29T15:44:01.587Z,59.70
2018-03-29T15:46:29.460Z,59.80
2018-03-29T15:48:57.321Z,60.40
2018-03-29T15:51:25.186Z,60.10
2018-03-29T15:53:53.060Z,59.60
2018-03-29T15:56:20.869Z,59.60
2018-03-29T15:58:48.689Z,59.40
2018-03-29T16:01:16.556Z,59.80
2018-03-29T16:03:44.423Z,60.00
2018-03-29T16:06:12.293Z,59.90
2018-03-29T16:08:40.108Z,59.10
2018-03-29T16:11:08.025Z,59.20
2018-03-29T16:13:35.621Z,59.70
2018-03-29T16:16:04.004Z,59.80
2018-03-29T16:18:32.360Z,60.10
2018-03-29T16:20:59.993Z,60.10
2018-03-29T16:23:27.593Z,60.10
2018-03-29T16:25:55.957Z,59.30
2018-03-29T16:28:24.340Z,59.50
2018-03-29T16:30:51.954Z,59.40
2018-03-29T16:33:19.574Z,59.50
2018-03-29T16:35:47.932Z,59.10
2018-03-29T16:38:15.567Z,59.10
2018-03-29T16:40:43.158Z,59.20
2018-03-29T16:43:10.784Z,59.20
2018-03-29T16:45:38.379Z,60.40
2018-03-29T16:48:06.009Z,59.70
2018-03-29T16:50:33.606Z,60.00
2018-03-29T16:53:01.200Z,59.90
2018-03-29T16:55:28.823Z,59.70
2018-03-29T16:57:56.416Z,59.50
2018-03-29T17:00:24.037Z,59.70
2018-03-29T17:02:51.629Z,59.20
2018-03-29T17:05:20.012Z,59.20
2018-03-29T17:07:47.629Z,59.70
2018-03-29T17:10:15.381Z,59.70
2018-03-29T17:12:42.976Z,59.40
2018-03-29T17:15:10.572Z,59.80
2018-03-29T17:17:38.187Z,59.60
2018-03-29T17:20:05.780Z,59.30
2018-03-29T17:22:33.420Z,59.10
2018-03-29T17:25:01.781Z,59.40
2018-03-29T17:27:29.386Z,59.90
2018-03-29T17:29:57.007Z,59.40
2018-03-29T17:32:24.604Z,59.60
2018-03-29T17:34:52.220Z,59.60
2018-03-29T17:37:19.804Z,59.60
2018-03-29T17:39:48.183Z,59.60
2018-03-29T17:42:16.536Z,59.70
2018-03-29T17:44:44.156Z,59.60
2018-03-29T17:47:11.742Z,59.60
2018-03-29T17:49:39.337Z,59.80
2018-03-29T17:52:07.716Z,60.70
2018-03-29T17:54:35.311Z,59.90
2018-03-29T17:57:02.963Z,60.10
2018-03-29T17:59:30.585Z,59.70
2018-03-29T18:01:58.208Z,59.60
2018-03-29T18:04:25.792Z,59.60
2018-03-29T18:06:53.662Z,59.50
2018-03-29T18:09:21.552Z,59.80
2018-03-29T18:11:50.108Z,60.40
2018-03-29T18:14:17.702Z,59.80
2018-03-29T18:16:46.072Z,59.80
2018-03-29T18:19:13.687Z,60.70
2018-03-29T18:21:41.328Z,60.80
2018-03-29T18:24:09.052Z,60.80
2018-03-29T18:26:36.641Z,60.50
2018-03-29T18:29:05.282Z,60.60
2018-03-29T18:31:33.050Z,60.40
2018-03-29T18:34:00.916Z,60.20
2018-03-29T18:36:28.528Z,60.30
2018-03-29T18:38:56.120Z,60.20
2018-03-29T18:41:23.749Z,60.10
2018-03-29T18:43:51.390Z,60.40
2018-03-29T18:46:19.780Z,61.00
2018-03-29T18:48:48.149Z,60.70
2018-03-29T18:51:16.578Z,60.80
2018-03-29T18:53:44.199Z,60.80
2018-03-29T18:56:12.556Z,60.70
2018-03-29T18:58:40.205Z,60.50
2018-03-29T19:01:07.795Z,61.70
2018-03-29T19:03:36.194Z,60.80
2018-03-29T19:06:03.791Z,60.70
2018-03-29T19:08:31.383Z,60.90
2018-03-29T19:10:59.763Z,60.70
2018-03-29T19:13:28.121Z,60.80
2018-03-29T19:15:55.736Z,60.80
2018-03-29T19:18:23.321Z,61.00
2018-03-29T19:20:50.953Z,61.00
2018-03-29T19:23:18.548Z,60.90
2018-03-29T19:25:46.136Z,60.90
2018-03-29T19:28:13.749Z,60.90
2018-03-29T19:30:41.344Z,60.70
2018-03-29T19:33:08.968Z,60.80
2018-03-29T19:35:36.563Z,60.70
2018-03-29T19:38:04.246Z,60.80
2018-03-29T19:40:31.839Z,60.90
2018-03-29T19:42:59.440Z,61.60
2018-03-29T19:45:27.063Z,60.80
2018-03-29T19:47:54.852Z,60.80
2018-03-29T19:50:22.480Z,60.70
2018-03-29T19:52:50.091Z,60.60
2018-03-29T19:55:17.690Z,60.50
2018-03-29T20:00:19.928Z,60.50
2018-03-29T20:02:47.546Z,60.50
2018-03-29T20:05:15.145Z,60.40
2018-03-29T20:07:42.796Z,60.50
2018-03-29T20:10:10.973Z,60.10
2018-03-29T20:12:38.608Z,60.40
2018-03-29T20:15:06.227Z,60.00
2018-03-29T20:17:33.826Z,60.10
2018-03-29T20:20:01.523Z,60.10
2018-03-29T20:22:29.135Z,60.20
2018-03-29T20:24:57.546Z,60.00
2018-03-29T20:27:25.145Z,59.90
2018-03-29T20:29:52.750Z,60.40
2018-03-29T20:32:20.429Z,60.40
2018-03-29T20:34:48.762Z,60.60
2018-03-29T20:37:16.388Z,60.50
2018-03-29T20:39:43.984Z,60.00
2018-03-29T20:42:11.607Z,60.20
2018-03-29T20:44:39.199Z,61.10
2018-03-29T20:47:06.828Z,60.30
2018-03-29T20:49:34.460Z,60.00
2018-03-29T20:52:02.048Z,60.00
2018-03-29T20:54:29.673Z,60.10
2018-03-29T20:56:58.036Z,60.20
2018-03-29T20:59:28.875Z,60.60
2018-03-29T21:01:56.871Z,60.40
2018-03-29T21:04:24.682Z,60.70
2018-03-29T21:06:52.313Z,60.90
2018-03-29T21:09:20.205Z,61.00
2018-03-29T21:11:48.064Z,61.00
2018-03-29T21:14:15.828Z,61.20
2018-03-29T21:16:43.907Z,61.00
2018-03-29T21:19:11.722Z,60.80
2018-03-29T21:21:39.530Z,60.90
2018-03-29T21:24:07.406Z,60.80
2018-03-29T21:26:35.265Z,60.80
2018-03-29T21:29:03.183Z,60.80
2018-03-29T21:31:31.829Z,60.50
2018-03-29T21:33:59.693Z,60.40
2018-03-29T21:36:27.548Z,60.70
2018-03-29T21:38:55.419Z,60.80
2018-03-29T21:41:23.003Z,60.80
2018-03-29T21:43:51.360Z,60.80
2018-03-29T21:46:18.984Z,60.70
2018-03-29T21:48:46.571Z,60.80
2018-03-29T21:51:14.198Z,60.80
2018-03-29T21:53:41.792Z,60.70
2018-03-29T21:56:09.967Z,60.60
2018-03-29T21:58:38.343Z,60.50
2018-03-29T22:01:07.332Z,61.00
2018-03-29T22:03:35.135Z,60.80
2018-03-29T22:06:02.800Z,60.80
2018-03-29T22:08:30.397Z,60.80
2018-03-29T22:10:58.020Z,61.00
2018-03-29T22:13:25.866Z,61.10
2018-03-29T22:15:53.457Z,61.00
2018-03-29T22:18:21.831Z,60.70
2018-03-29T22:20:51.004Z,60.80
2018-03-29T22:23:18.627Z,60.70
2018-03-29T22:25:46.778Z,60.50
2018-03-29T22:28:15.136Z,60.50
2018-03-29T22:30:42.760Z,60.40
2018-03-29T22:33:10.847Z,60.50
2018-03-29T22:35:39.377Z,60.40
2018-03-29T22:38:07.732Z,60.20
2018-03-29T22:40:35.458Z,60.10
2018-03-29T22:43:03.892Z,60.30
2018-03-29T22:45:32.251Z,60.20
2018-03-29T22:47:59.869Z,60.10
2018-03-29T22:50:27.463Z,59.90
2018-03-29T22:52:55.127Z,60.00
2018-03-29T22:55:22.725Z,60.10
2018-03-29T22:57:50.687Z,60.10
2018-03-29T23:00:27.931Z,60.00
2018-03-29T23:02:55.526Z,59.90
2018-03-29T23:05:23.910Z,59.80
2018-03-29T23:07:52.275Z,60.00
2018-03-29T23:10:20.687Z,60.10
2018-03-29T23:12:48.290Z,60.00
2018-03-29T23:15:15.888Z,60.10
2018-03-29T23:17:44.276Z,60.00
2018-03-29T23:20:11.874Z,60.00
2018-03-29T23:22:39.501Z,60.10
2018-03-29T23:25:07.092Z,60.30
2018-03-29T23:27:34.679Z,60.20
2018-03-29T23:30:02.505Z,60.30
2018-03-29T23:32:30.485Z,60.30
2018-03-29T23:34:58.156Z,60.30
2018-03-29T23:37:26.221Z,60.30
2018-03-29T23:39:53.827Z,60.30
2018-03-29T23:42:22.464Z,60.50
2018-03-29T23:44:50.068Z,60.30
2018-03-29T23:47:17.689Z,59.90
2018-03-29T23:49:45.272Z,60.00
2018-03-29T23:52:14.401Z,60.70
2018-03-29T23:54:42.764Z,60.80
2018-03-29T23:57:10.388Z,60.50
2018-03-29T23:59:37.972Z,60.70
